Home > Products > Valid Products > TAF

000
FTUS46 KSGX 291700
TAFCRQ
TAF
KCRQ 291735Z 2918/3018 27005KT P6SM FEW005
     FM292100 25008KT P6SM FEW200
     FM300100 VRB04KT P6SM SCT006
     FM300800 VRB03KT 5SM BR OVC006
     FM301600 VRB05KT P6SM SCT008=



000
FTUS46 KSGX 291700
TAFONT
TAF
KONT 291735Z 2918/3024 VRB04KT P6SM FEW200
     FM292000 26012KT P6SM FEW200
     FM300400 25007KT P6SM FEW200
     FM300800 VRB04KT P6SM FEW200
     FM302000 26012KT P6SM SKC=



000
FTUS46 KSGX 291700
TAFSNA
TAF
KSNA 291735Z 2918/3018 VRB05KT P6SM FEW200
     FM292000 22009KT P6SM FEW200
     FM300100 VRB04KT P6SM SCT010
     FM301100 VRB03KT P6SM BKN010
     FM301600 VRB05KT P6SM SCT012=



000
FTUS46 KSGX 291700
TAFTRM
TAF
KTRM 291735Z 2918/3018 VRB06KT P6SM FEW200
     FM292100 14007KT P6SM FEW200
     FM300200 33011KT P6SM FEW200
     FM301400 VRB06KT P6SM FEW200=



000
FTUS46 KSGX 291700
TAFSAN
TAF
KSAN 291735Z 2918/3024 VRB04KT P6SM SCT012
     FM291900 29009KT P6SM FEW200
     FM300200 VRB04KT P6SM SCT010
     FM300800 VRB04KT P6SM OVC010
     FM301600 20006KT P6SM SCT012
     FM301900 22008KT P6SM FEW012=



000
FTUS46 KSGX 291700
TAFPSP
TAF
KPSP 291735Z 2918/3018 VRB05KT P6SM FEW200
     FM292200 32012G20KT P6SM FEW200
     FM300600 VRB06KT P6SM FEW200=



000
FTUS46 KSGX 291400 AAA
TAFSAN
TAF AMD
KSAN 291440Z 2915/3018 VRB04KT P6SM SCT010
      TEMPO 2915/2917 BKN008
     FM291900 28010KT P6SM SKC
     FM300300 VRB04KT P6SM SCT010
     FM300700 18005KT P6SM OVC010
     FM301700 20006KT P6SM SCT012=



000
FTUS46 KSGX 291400 AAA
TAFCRQ
TAF AMD
KCRQ 291431Z 2915/3012 VRB04KT P6SM SCT005
      TEMPO 2915/2917 3SM BR BKN005
     FM291900 25008KT P6SM SKC
     FM300200 VRB04KT P6SM SCT008
     FM300700 VRB03KT P6SM OVC007=



000
FTUS46 KSGX 291100
TAFSAN
TAF
KSAN 291120Z 2912/3018 VRB04KT P6SM FEW010
     FM291900 28010KT P6SM SKC
     FM300300 VRB04KT P6SM SCT010
     FM300700 18005KT P6SM OVC010
     FM301600 20006KT P6SM SCT012=



000
FTUS46 KSGX 291100
TAFONT
TAF
KONT 291120Z 2912/3018 VRB04KT P6SM SKC
     FM292100 26012KT P6SM SKC
     FM300400 25007KT P6SM SKC
     FM300800 VRB04KT P6SM SKC=



000
FTUS46 KSGX 291100
TAFCRQ
TAF
KCRQ 291120Z 2912/3012 VRB04KT P6SM FEW008
     FM291900 25008KT P6SM SKC
     FM300200 VRB04KT P6SM SCT008
     FM300700 VRB03KT P6SM OVC007=



000
FTUS46 KSGX 291100
TAFPSP
TAF
KPSP 291120Z 2912/3012 VRB05KT P6SM SKC
     FM300000 32010G18KT P6SM SKC
     FM300600 VRB05KT P6SM SKC=



000
FTUS46 KSGX 291100
TAFSNA
TAF
KSNA 291120Z 2912/3012 VRB03KT P6SM FEW012
     FM291900 22009KT P6SM SKC
     FM300300 VRB04KT P6SM SCT010
     FM300800 VRB03KT P6SM OVC009=



000
FTUS46 KSGX 291100
TAFTRM
TAF
KTRM 291120Z 2912/3012 33008KT P6SM SKC
     FM291800 14008KT P6SM SKC
     FM300300 33009KT P6SM SKC=



000
FTUS46 KSGX 290800 AAA
TAFSAN
TAF AMD
KSAN 290857Z 2909/3012 VRB04KT P6SM FEW010
     FM291900 30011KT P6SM SKC
     FM300300 VRB04KT P6SM SCT012
     FM300700 18005KT P6SM BKN010=



000
FTUS46 KSGX 290500
TAFTRM
TAF
KTRM 290520Z 2906/3006 34009KT P6SM SKC
     FM291200 VRB05KT P6SM SKC=



000
FTUS46 KSGX 290500
TAFPSP
TAF
KPSP 290520Z 2906/3006 VRB05KT P6SM SKC
     FM292300 31012G24KT P6SM SKC=



000
FTUS46 KSGX 290500
TAFCRQ
TAF
KCRQ 290520Z 2906/3006 00000KT P6SM SKC
     FM291200 VRB03KT P6SM SCT008
     FM291600 VRB04KT P6SM FEW010
     FM292000 30008KT P6SM SKC
     FM300200 23004KT P6SM SCT010=



000
FTUS46 KSGX 290500
TAFSAN
TAF
KSAN 290520Z 2906/3012 31004KT P6SM SKC
     FM291100 VRB04KT P6SM SCT010
     FM291900 31011KT P6SM SKC
     FM300200 VRB04KT P6SM SCT012
     FM300900 18004KT P6SM BKN013=



000
FTUS46 KSGX 290500
TAFSNA
TAF
KSNA 290520Z 2906/3006 23004KT P6SM SKC
     FM291200 VRB03KT P6SM SCT008
     FM291600 VRB04KT P6SM SKC
     FM292000 25008KT P6SM SKC
     FM300100 22006KT P6SM SKC=



000
FTUS46 KSGX 290500
TAFONT
TAF
KONT 290520Z 2906/3012 27006KT P6SM SKC
     FM292100 26013G20KT P6SM SKC
     FM300400 26005KT P6SM SKC=



000
FTUS46 KSGX 290300 AAA
TAFCRQ
TAF AMD
KCRQ 290307Z 2903/2924 00000KT P6SM SKC
     FM291200 VRB03KT P6SM SCT008
     FM291600 VRB04KT P6SM FEW010
     FM292000 30008KT P6SM SKC=



000
FTUS46 KSGX 290300 AAA
TAFSAN
TAF AMD
KSAN 290306Z 2903/3006 29003KT P6SM SKC
     FM291100 VRB04KT P6SM SCT010
     FM291530 VRB04KT P6SM SCT012
     FM291900 31011KT P6SM SKC
     FM300200 VRB04KT P6SM SCT015=



000
FTUS46 KSGX 282300
TAFSNA
TAF
KSNA 282340Z 2900/2924 VRB04KT P6SM SKC
     FM291200 VRB03KT P6SM SCT008
     FM291600 VRB04KT P6SM SKC
     FM292000 25008KT P6SM SKC=



000
FTUS46 KSGX 282300
TAFONT
TAF
KONT 282340Z 2900/3006 28014G20KT P6SM SKC
     FM290400 VRB04KT P6SM SKC
     FM292100 26013G20KT P6SM SKC
     FM300400 26005KT P6SM SKC=



000
FTUS46 KSGX 282300
TAFTRM
TAF
KTRM 282340Z 2900/2924 31005KT P6SM SKC
     FM290300 33010KT P6SM SKC
     FM291200 VRB05KT P6SM SKC=



000
FTUS46 KSGX 282300
TAFSAN
TAF
KSAN 282340Z 2900/3006 31010KT P6SM SKC
     FM290200 31005KT P6SM SKC
     FM291100 VRB04KT P6SM BKN006
     FM291530 VRB04KT P6SM SCT008
     FM291900 31011KT P6SM SKC
     FM300200 VRB04KT P6SM SCT010=



000
FTUS46 KSGX 282300
TAFCRQ
TAF
KCRQ 282340Z 2900/2924 27008KT P6SM SKC
     FM290200 VRB04KT P6SM SKC
     FM291200 VRB03KT 5SM BR BKN004
     FM291600 VRB04KT P6SM FEW006
     FM292000 30008KT P6SM SKC=



000
FTUS46 KSGX 282300
TAFPSP
TAF
KPSP 282340Z 2900/2924 33013G23KT P6SM SKC
     FM290600 VRB05KT P6SM SKC=



000
FTUS46 KSGX 282000 AAA
TAFSAN
TAF AMD
KSAN 282033Z 2821/2924 30011KT P6SM SKC
     FM290400 31005KT P6SM FEW008
     FM291100 VRB04KT 6SM BR BKN006
     FM291530 VRB04KT P6SM SCT008
     FM291900 31011KT P6SM SKC=



000
FTUS46 KSGX 281700
TAFPSP
TAF
KPSP 281730Z 2818/2918 VRB04KT P6SM SKC
     FM282300 32011KT P6SM SKC
     FM290600 VRB05KT P6SM SKC=



000
FTUS46 KSGX 281700
TAFSNA
TAF
KSNA 281730Z 2818/2918 VRB03KT P6SM SKC
     FM282000 22009KT P6SM SKC
     FM290300 VRB04KT P6SM SKC
     FM291200 VRB03KT P6SM BKN006
     FM291600 VRB04KT P6SM FEW010=



000
FTUS46 KSGX 281700
TAFSAN
TAF
KSAN 281730Z 2818/2924 29008KT P6SM SKC
     FM281900 30011KT P6SM SKC
     FM290300 31005KT P6SM FEW008
     FM291100 VRB04KT 6SM BR BKN006
     FM291530 VRB04KT P6SM SCT008
     FM291900 31011KT P6SM SKC=



000
FTUS46 KSGX 281700
TAFCRQ
TAF
KCRQ 281730Z 2818/2918 VRB04KT P6SM SKC
     FM281900 26008KT P6SM SKC
     FM290200 VRB04KT P6SM FEW006
     FM291200 VRB03KT 4SM BR BKN004
     FM291600 VRB04KT P6SM FEW006=



000
FTUS46 KSGX 281700
TAFTRM
TAF
KTRM 281730Z 2818/2918 VRB05KT P6SM SKC
     FM290300 33010KT P6SM SKC
     FM291200 VRB05KT P6SM SKC=



000
FTUS46 KSGX 281700
TAFONT
TAF
KONT 281730Z 2818/2924 VRB04KT P6SM SKC
     FM282100 26013KT P6SM SKC
     FM290400 VRB04KT P6SM SKC
     FM291400 VRB03KT 4SM HZ SKC
     FM292100 26011KT P6SM SKC=



000
FTUS46 KSGX 281400 AAA
TAFSAN
TAF AMD
KSAN 281450Z 2815/2918 VRB04KT P6SM SKC
     FM281900 29010KT P6SM SKC
     FM290300 30005KT P6SM SCT012
     FM291000 VRB04KT P6SM BKN010
     FM291600 VRB04KT P6SM SCT010=



000
FTUS46 KSGX 281100
TAFTRM
TAF
KTRM 281123Z 2812/2912 VRB05KT P6SM SKC
     FM281900 14008KT P6SM SKC
     FM290200 33010KT P6SM SKC=



000
FTUS46 KSGX 281100
TAFPSP
TAF
KPSP 281123Z 2812/2912 VRB05KT P6SM SKC
     FM282300 32011KT P6SM SKC
     FM290600 VRB05KT P6SM SKC=



000
FTUS46 KSGX 281100
TAFSAN
TAF
KSAN 281123Z 2812/2918 VRB04KT P6SM SKC
     FM281900 29010KT P6SM SKC
     FM290300 30005KT P6SM SCT012
     FM291000 VRB04KT P6SM BKN010
     FM291600 VRB04KT P6SM SCT010=



000
FTUS46 KSGX 281100
TAFSNA
TAF
KSNA 281123Z 2812/2912 VRB03KT P6SM SKC
     FM282000 22009KT P6SM SKC
     FM290300 VRB04KT P6SM SKC
     FM291100 VRB03KT P6SM BKN009=



000
FTUS46 KSGX 281100
TAFONT
TAF
KONT 281123Z 2812/2918 VRB04KT P6SM SKC
     FM282100 26013KT P6SM SKC
     FM290400 VRB04KT P6SM SKC=



000
FTUS46 KSGX 281100
TAFCRQ
TAF
KCRQ 281123Z 2812/2912 VRB04KT P6SM SKC
     FM281900 26008KT P6SM SKC
     FM290200 VRB04KT P6SM SCT008
     FM291000 VRB03KT 5SM BR BKN007=



000
FTUS46 KSGX 280900 AAA
TAFSAN
TAF AMD
KSAN 280901Z 2809/2912 VRB04KT P6SM SKC
     FM281900 29010KT P6SM SKC
     FM290300 30005KT P6SM SCT012
     FM291000 VRB04KT P6SM BKN010=



000
FTUS46 KSGX 280500
TAFSNA
TAF
KSNA 280520Z 2806/2906 27003KT P6SM SKC
     FM282100 25008KT P6SM SKC
     FM290200 25003KT P6SM SKC=



000
FTUS46 KSGX 280500
TAFTRM
TAF
KTRM 280520Z 2806/2906 34007KT P6SM SKC
     FM281000 VRB05KT P6SM SKC
     FM290200 34012KT P6SM SKC=



000
FTUS46 KSGX 280500
TAFONT
TAF
KONT 280520Z 2806/2912 24005KT P6SM SKC
     FM282100 26013KT P6SM SKC
     FM290400 26004KT P6SM SKC=



000
FTUS46 KSGX 280500
TAFCRQ
TAF
KCRQ 280520Z 2806/2906 00000KT P6SM SKC
     FM282000 29008KT P6SM SKC
     FM290200 VRB04KT P6SM SCT010=



000
FTUS46 KSGX 280500
TAFPSP
TAF
KPSP 280520Z 2806/2906 VRB06KT P6SM SKC
     FM282300 31012G21KT P6SM SKC
     FM290500 30009KT P6SM SKC=



000
FTUS46 KSGX 280500
TAFSAN
TAF
KSAN 280520Z 2806/2912 34005KT P6SM SKC
     FM281900 29009KT P6SM SKC
     FM290200 27005KT P6SM SCT015
     FM291000 VRB04KT P6SM BKN010=



000
FTUS46 KSGX 280300 AAA
TAFSAN
TAF AMD
KSAN 280301Z 2803/2906 34004KT P6SM SKC
     FM281900 29009KT P6SM SKC
     FM290200 27005KT P6SM SCT015=



000
FTUS46 KSGX 280100 AAA
TAFONT
TAF AMD
KONT 280143Z 2802/2906 27011KT P6SM SKC
     FM280400 VRB04KT P6SM SKC
     FM282100 26013KT P6SM SKC
     FM290400 26004KT P6SM SKC=



000
FTUS46 KSGX 272300
TAFSAN
TAF
KSAN 272320Z 2800/2906 31008KT P6SM SKC
     FM280200 VRB04KT P6SM FEW010
     FM281900 29009KT P6SM SKC
     FM290200 27005KT P6SM SCT015=



000
FTUS46 KSGX 272300
TAFTRM
TAF
KTRM 272320Z 2800/2824 16005KT P6SM SKC
     FM280300 32011KT P6SM SKC
     FM281200 VRB05KT P6SM SKC=



000
FTUS46 KSGX 272300
TAFCRQ
TAF
KCRQ 272320Z 2800/2824 26008KT P6SM SKC
     FM280200 VRB03KT P6SM SKC
     FM282000 29008KT P6SM SKC=



000
FTUS46 KSGX 272300
TAFPSP
TAF
KPSP 272320Z 2800/2824 29014G22KT P6SM SKC
     FM280600 VRB05KT P6SM SKC=



000
FTUS46 KSGX 272300
TAFSNA
TAF
KSNA 272320Z 2800/2824 24007KT P6SM FEW040
     FM280300 VRB03KT P6SM SKC
     FM282100 25008KT P6SM SKC=



000
FTUS46 KSGX 272300
TAFONT
TAF
KONT 272320Z 2800/2906 23014KT P6SM FEW080
     FM280400 VRB04KT P6SM SKC
     FM282100 26013KT P6SM SKC
     FM290400 26004KT P6SM SKC=



000
FTUS46 KSGX 272000 AAA
TAFSAN
TAF AMD
KSAN 272031Z 2721/2824 31009KT P6SM SKC
     FM280300 VRB04KT P6SM FEW010
     FM281900 29009KT P6SM SKC=



000
FTUS46 KSGX 271700
TAFONT
TAF
KONT 271725Z 2718/2824 VRB05KT P6SM SKC
     FM272100 25011KT P6SM SKC
     FM280400 VRB04KT P6SM SKC
     FM282100 26012KT P6SM SKC=



000
FTUS46 KSGX 271700
TAFTRM
TAF
KTRM 271725Z 2718/2818 VRB05KT P6SM SKC
     FM272100 15008KT P6SM SKC
     FM280300 32009KT P6SM SKC
     FM281200 VRB05KT P6SM SKC=



000
FTUS46 KSGX 271700
TAFSAN
TAF
KSAN 271725Z 2718/2824 VRB03KT P6SM FEW250
     FM271900 30010KT P6SM SKC
     FM280300 VRB04KT P6SM FEW010
     FM281900 29009KT P6SM SKC=



000
FTUS46 KSGX 271700
TAFSNA
TAF
KSNA 271725Z 2718/2818 VRB03KT P6SM SKC
     FM271900 22008KT P6SM SKC
     FM280300 VRB03KT P6SM SKC=



000
FTUS46 KSGX 271700
TAFCRQ
TAF
KCRQ 271725Z 2718/2818 VRB03KT P6SM SKC
     FM271900 26008KT P6SM SKC
     FM280200 VRB03KT P6SM SKC=



000
FTUS46 KSGX 271700
TAFPSP
TAF
KPSP 271725Z 2718/2818 VRB06KT P6SM SKC
     FM272300 33010KT P6SM SKC
     FM280600 VRB05KT P6SM SKC=



000
FTUS46 KSGX 271400 AAA
TAFSAN
TAF AMD
KSAN 271442Z 2715/2818 VRB03KT P6SM FEW250
     FM271900 30011KT P6SM SKC
     FM280300 VRB05KT P6SM FEW010=



000
FTUS46 KSGX 271100
TAFPSP
TAF
KPSP 271120Z 2712/2812 VRB06KT P6SM SKC
     FM280100 32010KT P6SM SKC
     FM280600 VRB05KT P6SM SKC=



000
FTUS46 KSGX 271100
TAFONT
TAF
KONT 271120Z 2712/2818 VRB05KT P6SM SKC
     FM272100 26012KT P6SM SKC
     FM280500 VRB05KT P6SM SKC=



000
FTUS46 KSGX 271100
TAFSAN
TAF
KSAN 271120Z 2712/2818 VRB03KT P6SM FEW012
     FM271900 30011KT P6SM SKC
     FM280300 VRB05KT P6SM FEW010=



000
FTUS46 KSGX 271100
TAFSNA
TAF
KSNA 271120Z 2712/2812 VRB03KT P6SM SKC
     FM271900 22008KT P6SM SKC
     FM280300 VRB05KT P6SM SKC=



000
FTUS46 KSGX 271100
TAFCRQ
TAF
KCRQ 271120Z 2712/2812 VRB03KT P6SM FEW008
     FM271900 26008KT P6SM SKC
     FM280200 VRB04KT P6SM FEW006=



000
FTUS46 KSGX 271100
TAFTRM
TAF
KTRM 271120Z 2712/2812 VRB05KT P6SM SKC
     FM271900 15008KT P6SM SKC
     FM280300 32011KT P6SM SKC=



000
FTUS46 KSGX 270800 AAA
TAFSAN
TAF AMD
KSAN 270859Z 2709/2812 VRB03KT P6SM FEW015
     FM271900 30011KT P6SM SKC
     FM280300 VRB05KT P6SM FEW010=



000
FTUS46 KSGX 270500
TAFTRM
TAF
KTRM 270520Z 2706/2806 33010KT P6SM SKC
     FM270900 VRB06KT P6SM SKC
     FM280300 32010KT P6SM SKC=



000
FTUS46 KSGX 270500
TAFSAN
TAF
KSAN 270520Z 2706/2812 VRB04KT P6SM FEW015 SCT070
     FM272000 30011KT P6SM SKC
     FM280300 VRB05KT P6SM FEW015=



000
FTUS46 KSGX 270500
TAFPSP
TAF
KPSP 270520Z 2706/2806 VRB06KT P6SM SKC
     FM280000 32012G18KT P6SM SKC
     FM280500 VRB06KT P6SM SKC=



000
FTUS46 KSGX 270500
TAFONT
TAF
KONT 270520Z 2706/2812 VRB05KT P6SM SKC
     FM272100 26012KT P6SM SKC
     FM280500 VRB05KT P6SM SKC=



000
FTUS46 KSGX 270500
TAFSNA
TAF
KSNA 270520Z 2706/2806 VRB03KT P6SM FEW013
     FM272000 23008KT P6SM SKC
     FM280200 VRB05KT P6SM SKC=



000
FTUS46 KSGX 270500
TAFCRQ
TAF
KCRQ 270520Z 2706/2806 VRB03KT P6SM FEW010
     FM272000 26008KT P6SM SKC
     FM280200 VRB04KT P6SM SKC=



000
FTUS46 KSGX 270200 AAA
TAFSAN
TAF AMD
KSAN 270258Z 2703/2806 VRB04KT P6SM FEW015 SCT070
     FM272000 30011KT P6SM SKC
     FM280300 VRB05KT P6SM FEW015=



000
FTUS46 KSGX 262300
TAFTRM
TAF
KTRM 262335Z 2700/2724 VRB05KT P6SM SCT250
     FM270300 33009KT P6SM SKC
     FM270900 VRB06KT P6SM SKC=



000
FTUS46 KSGX 262300
TAFSAN
TAF
KSAN 262335Z 2700/2806 30010KT P6SM FEW015 SCT200
     FM270300 VRB04KT P6SM FEW012
     FM272000 30011KT P6SM SKC
     FM280300 VRB05KT P6SM FEW015=



000
FTUS46 KSGX 262300
TAFPSP
TAF
KPSP 262335Z 2700/2724 32011KT P6SM SCT250
     FM270600 VRB06KT P6SM SKC=



000
FTUS46 KSGX 262300
TAFONT
TAF
KONT 262335Z 2700/2806 25012KT P6SM SCT250
     FM270500 VRB05KT P6SM SKC
     FM272100 26012KT P6SM SKC
     FM280500 VRB05KT P6SM SKC=



000
FTUS46 KSGX 262300
TAFCRQ
TAF
KCRQ 262335Z 2700/2724 26008KT P6SM SCT250
     FM270300 VRB03KT P6SM FEW010
     FM272000 26008KT P6SM SKC=



000
FTUS46 KSGX 262300
TAFSNA
TAF
KSNA 262335Z 2700/2724 23009KT P6SM SCT250
     FM270300 VRB03KT P6SM SKC
     FM272000 23008KT P6SM SKC=



000
FTUS46 KSGX 262000 AAA
TAFSAN
TAF AMD
KSAN 262042Z 2621/2724 30010KT P6SM SCT200
     FM270300 VRB04KT P6SM FEW012
     FM272000 32011KT P6SM SKC=



    US Dept of Commerce
    National Oceanic and Atmospheric Administration
    National Weather Service
    1325 East West Highway
    Silver Spring, MD 20910
    Page Author: NWS Internet Services Team
Disclaimer
Information Quality
Credits
Glossary
Privacy Policy
Freedom of Information Act (FOIA)
About Us
Career Opportunities